Time;durP1;ratioP1;P1;durP2;ratioP2;P2;SDS_P1;SDS_P2;PMS_P1;PMS_P2;Temp;Humidity;BMP_temperature;BMP_pressure;BME280_temperature;BME280_humidity;BME280_pressure;Samples;Min_cycle;Max_cycle;Signal;HPM_P1;HPM_P2
2023/01/26 00:01:09;;;;;;;107.18;26.95;;;;;;;;;;6290891;22;20106;-85
2023/01/26 00:03:35;;;;;;;103.82;26.75;;;;;;;;;;6318244;22;20034;-85
2023/01/26 00:06:07;;;;;;;111.13;29.02;;;;;;;;;;6319010;22;20817;-85
2023/01/26 00:08:37;;;;;;;107.18;28.17;;;;;;;;;;6316234;22;20028;-85
2023/01/26 00:11:04;;;;;;;101.18;27.08;;;;;;;;;;6317403;22;20024;-85
2023/01/26 00:13:31;;;;;;;113.13;30.55;;;;;;;;;;6318204;22;20016;-85
2023/01/26 00:15:58;;;;;;;107.85;28.00;;;;;;;;;;6317701;22;20902;-85
2023/01/26 00:18:24;;;;;;;118.05;29.30;;;;;;;;;;6315834;22;20103;-85
2023/01/26 00:20:54;;;;;;;113.55;28.58;;;;;;;;;;6317346;22;20071;-85
2023/01/26 00:23:21;;;;;;;110.65;28.95;;;;;;;;;;6314053;22;20032;-85
2023/01/26 00:25:47;;;;;;;105.40;26.95;;;;;;;;;;6313325;22;20659;-85
2023/01/26 00:28:14;;;;;;;94.75;25.77;;;;;;;;;;6312730;22;20031;-85
2023/01/26 00:30:40;;;;;;;96.35;25.17;;;;;;;;;;6312106;22;20028;-85
2023/01/26 00:33:07;;;;;;;93.03;23.50;;;;;;;;;;6313650;22;20012;-85
2023/01/26 00:35:33;;;;;;;92.60;24.08;;;;;;;;;;6314168;22;20024;-85
2023/01/26 00:38:00;;;;;;;88.55;21.85;;;;;;;;;;6313726;22;20103;-85
2023/01/26 00:40:26;;;;;;;92.65;24.85;;;;;;;;;;6315453;22;20027;-85
2023/01/26 00:42:53;;;;;;;94.32;25.73;;;;;;;;;;6314351;22;20347;-85
2023/01/26 00:45:20;;;;;;;79.07;22.20;;;;;;;;;;6286070;22;20079;-85
2023/01/26 00:47:46;;;;;;;90.05;24.83;;;;;;;;;;6314353;22;20937;-85
2023/01/26 00:50:13;;;;;;;86.40;23.10;;;;;;;;;;6316732;22;20031;-85
2023/01/26 00:52:40;;;;;;;84.97;22.58;;;;;;;;;;6315908;22;20023;-85
2023/01/26 00:55:07;;;;;;;76.97;20.30;;;;;;;;;;6314652;22;20477;-85
2023/01/26 00:57:36;;;;;;;78.25;22.17;;;;;;;;;;6316304;22;20404;-86
2023/01/26 01:00:07;;;;;;;90.40;23.58;;;;;;;;;;6313831;22;20020;-85
2023/01/26 01:02:34;;;;;;;74.25;22.98;;;;;;;;;;6315503;22;20023;-85
2023/01/26 01:05:01;;;;;;;74.25;21.80;;;;;;;;;;6286861;22;20094;-85
2023/01/26 01:07:28;;;;;;;74.57;20.95;;;;;;;;;;6316454;22;20026;-85
2023/01/26 01:09:54;;;;;;;74.78;20.98;;;;;;;;;;6283714;22;20047;-85
2023/01/26 01:12:21;;;;;;;79.80;20.20;;;;;;;;;;6316495;22;20447;-85
2023/01/26 01:14:47;;;;;;;77.70;21.88;;;;;;;;;;6316685;22;20778;-85
2023/01/26 01:17:14;;;;;;;76.28;21.73;;;;;;;;;;6315701;22;20024;-85
2023/01/26 01:19:40;;;;;;;71.63;21.05;;;;;;;;;;6315202;22;20024;-85
2023/01/26 01:22:06;;;;;;;79.03;21.95;;;;;;;;;;6314822;22;20032;-85
2023/01/26 01:24:34;;;;;;;77.80;21.20;;;;;;;;;;6314908;22;20030;-85
2023/01/26 01:27:01;;;;;;;75.55;20.98;;;;;;;;;;6285536;22;20051;-85
2023/01/26 01:32:07;;;;;;;72.45;20.15;;;;;;;;;;6312474;22;20027;-86
2023/01/26 01:34:33;;;;;;;71.95;20.40;;;;;;;;;;6311525;22;20055;-85
2023/01/26 01:37:00;;;;;;;78.25;21.77;;;;;;;;;;6280702;22;20110;-87
2023/01/26 01:39:27;;;;;;;69.70;19.35;;;;;;;;;;6281037;22;20054;-85
2023/01/26 01:41:53;;;;;;;75.65;20.92;;;;;;;;;;6281920;22;20031;-85
2023/01/26 01:44:24;;;;;;;73.07;20.92;;;;;;;;;;6308240;22;20480;-84
2023/01/26 01:47:13;;;;;;;71.32;18.95;;;;;;;;;;6309824;22;20618;-85
2023/01/26 01:49:48;;;;;;;75.32;20.13;;;;;;;;;;6303646;22;20031;-85
2023/01/26 01:52:20;;;;;;;73.88;19.02;;;;;;;;;;6309811;22;20050;-85
2023/01/26 01:54:49;;;;;;;68.28;20.50;;;;;;;;;;6309635;22;20078;-84
2023/01/26 01:57:26;;;;;;;75.65;21.50;;;;;;;;;;6307216;22;20027;-85
2023/01/26 02:00:13;;;;;;;77.05;21.38;;;;;;;;;;6309644;22;20031;-85
2023/01/26 02:02:43;;;;;;;72.68;19.23;;;;;;;;;;6281329;22;20202;-86
2023/01/26 02:05:20;;;;;;;78.65;19.80;;;;;;;;;;6280735;22;20190;-85
2023/01/26 02:07:47;;;;;;;61.10;19.27;;;;;;;;;;6306203;22;20523;-85
2023/01/26 02:10:19;;;;;;;68.55;19.92;;;;;;;;;;6308771;22;20811;-85
2023/01/26 02:12:59;;;;;;;74.97;20.15;;;;;;;;;;6280009;22;20073;-86
2023/01/26 02:15:26;;;;;;;79.40;20.65;;;;;;;;;;6309692;22;20023;-85
2023/01/26 02:17:53;;;;;;;76.05;20.13;;;;;;;;;;6308729;22;20081;-85
2023/01/26 02:20:42;;;;;;;75.60;18.77;;;;;;;;;;6307530;22;20054;-84
2023/01/26 02:23:11;;;;;;;71.47;19.48;;;;;;;;;;6308483;22;20476;-85
2023/01/26 02:25:41;;;;;;;71.15;18.67;;;;;;;;;;6308469;22;20020;-85
2023/01/26 02:28:08;;;;;;;74.68;20.30;;;;;;;;;;6307055;22;20435;-84
2023/01/26 02:30:36;;;;;;;80.00;20.52;;;;;;;;;;6281120;22;20023;-85
2023/01/26 02:33:03;;;;;;;74.13;19.25;;;;;;;;;;6307676;22;20055;-85
2023/01/26 02:35:30;;;;;;;76.00;20.20;;;;;;;;;;6280670;22;20402;-84
2023/01/26 02:37:57;;;;;;;70.95;18.88;;;;;;;;;;6306872;22;20544;-84
2023/01/26 02:40:29;;;;;;;75.65;19.27;;;;;;;;;;6282956;22;20019;-85
2023/01/26 02:42:55;;;;;;;81.10;20.10;;;;;;;;;;6308932;22;20106;-85
2023/01/26 02:45:24;;;;;;;69.32;20.00;;;;;;;;;;6307873;22;20025;-84
2023/01/26 02:47:52;;;;;;;84.95;22.08;;;;;;;;;;6307606;22;20039;-84
2023/01/26 02:50:19;;;;;;;80.90;20.75;;;;;;;;;;6279395;22;20027;-85
2023/01/26 02:52:46;;;;;;;75.55;20.38;;;;;;;;;;6307295;22;20016;-85
2023/01/26 02:55:23;;;;;;;84.22;21.15;;;;;;;;;;6306652;22;20091;-85
2023/01/26 02:57:52;;;;;;;73.55;21.35;;;;;;;;;;6280241;22;20031;-84
2023/01/26 03:00:21;;;;;;;82.63;21.23;;;;;;;;;;6307356;22;20603;-84
2023/01/26 03:02:49;;;;;;;81.20;22.38;;;;;;;;;;6306756;22;20027;-85
2023/01/26 03:05:16;;;;;;;76.70;21.42;;;;;;;;;;6307371;22;20043;-83
2023/01/26 03:07:42;;;;;;;81.05;20.40;;;;;;;;;;6308444;22;20473;-83
2023/01/26 03:10:10;;;;;;;88.22;21.42;;;;;;;;;;6308181;22;20023;-83
2023/01/26 03:12:37;;;;;;;76.25;21.15;;;;;;;;;;6308198;22;20463;-83
2023/01/26 03:27:25;;;;;;;86.88;21.25;;;;;;;;;;6306700;22;20393;-84
2023/01/26 03:29:04;;;;;;;83.22;21.67;;;;;;;;;;6307559;22;20055;-83
2023/01/26 03:31:31;;;;;;;83.55;21.08;;;;;;;;;;6309823;22;20011;-83
2023/01/26 03:33:57;;;;;;;69.43;19.75;;;;;;;;;;6308156;22;20873;-83
2023/01/26 03:36:23;;;;;;;77.18;21.25;;;;;;;;;;6278893;22;20062;-82
2023/01/26 03:38:59;;;;;;;77.40;18.88;;;;;;;;;;6308537;22;20019;-83
2023/01/26 03:58:22;;;;;;;69.15;20.17;;;;;;;;;;6309152;22;20098;-82
2023/01/26 04:00:49;;;;;;;75.55;18.38;;;;;;;;;;6288564;22;20027;-82
2023/01/26 04:08:46;;;;;;;61.10;17.05;;;;;;;;;;6315885;22;20030;-83
2023/01/26 04:11:15;;;;;;;66.20;16.83;;;;;;;;;;6317285;22;20020;-82
2023/01/26 04:21:57;;;;;;;66.72;17.65;;;;;;;;;;6316349;22;20054;-82
2023/01/26 04:24:24;;;;;;;70.72;17.83;;;;;;;;;;6313152;22;20670;-81
2023/01/26 04:26:50;;;;;;;61.70;17.38;;;;;;;;;;6313413;22;20024;-82
2023/01/26 04:29:17;;;;;;;61.97;16.40;;;;;;;;;;6315045;22;20055;-82
2023/01/26 04:31:43;;;;;;;55.88;16.48;;;;;;;;;;6314425;22;20102;-82
2023/01/26 04:34:11;;;;;;;58.95;16.75;;;;;;;;;;6288428;22;20035;-82
2023/01/26 04:36:38;;;;;;;66.35;18.48;;;;;;;;;;6313783;22;20015;-83
2023/01/26 04:39:04;;;;;;;71.07;18.27;;;;;;;;;;6316023;22;20018;-82
2023/01/26 04:41:31;;;;;;;67.45;17.98;;;;;;;;;;6314250;22;20019;-82
2023/01/26 04:43:57;;;;;;;61.97;18.00;;;;;;;;;;6288327;22;20030;-82
2023/01/26 04:46:24;;;;;;;58.33;18.02;;;;;;;;;;6316052;22;20028;-82
2023/01/26 04:48:50;;;;;;;68.10;18.17;;;;;;;;;;6315003;22;20103;-82
2023/01/26 04:51:18;;;;;;;63.80;17.98;;;;;;;;;;6307714;22;20118;-82
2023/01/26 04:53:45;;;;;;;68.90;18.38;;;;;;;;;;6283307;22;20027;-82
2023/01/26 04:56:22;;;;;;;69.05;18.02;;;;;;;;;;6313336;22;20026;-82
2023/01/26 04:58:49;;;;;;;59.00;18.00;;;;;;;;;;6313045;22;20098;-82
2023/01/26 05:01:15;;;;;;;73.03;18.40;;;;;;;;;;6314412;22;20060;-82
2023/01/26 05:03:42;;;;;;;63.30;17.27;;;;;;;;;;6316106;22;20452;-82
2023/01/26 05:06:08;;;;;;;62.58;18.85;;;;;;;;;;6315297;22;20455;-82
2023/01/26 05:08:35;;;;;;;64.05;18.65;;;;;;;;;;6315966;22;20024;-82
2023/01/26 05:11:02;;;;;;;56.60;17.65;;;;;;;;;;6315983;22;20044;-82
2023/01/26 05:13:28;;;;;;;62.30;17.65;;;;;;;;;;6313988;22;20028;-82
2023/01/26 05:15:55;;;;;;;62.53;18.33;;;;;;;;;;6315608;22;20030;-82
2023/01/26 05:18:21;;;;;;;66.47;18.73;;;;;;;;;;6287398;22;20024;-82
2023/01/26 05:20:47;;;;;;;67.38;16.95;;;;;;;;;;6314677;22;20035;-82
2023/01/26 05:23:13;;;;;;;64.30;17.30;;;;;;;;;;6315330;22;20020;-82
2023/01/26 05:25:40;;;;;;;66.22;17.77;;;;;;;;;;6312696;22;20757;-82
2023/01/26 05:28:06;;;;;;;68.95;17.65;;;;;;;;;;6281668;22;20031;-82
2023/01/26 05:30:33;;;;;;;63.47;17.75;;;;;;;;;;6312208;22;20026;-82
2023/01/26 05:33:03;;;;;;;65.43;17.42;;;;;;;;;;6312777;22;20026;-82
2023/01/26 05:35:30;;;;;;;68.75;18.67;;;;;;;;;;6313365;22;20036;-82
2023/01/26 05:37:56;;;;;;;62.92;17.75;;;;;;;;;;6313920;22;20012;-82
2023/01/26 05:40:23;;;;;;;65.20;17.77;;;;;;;;;;6286101;22;20031;-82
2023/01/26 05:42:49;;;;;;;72.88;19.63;;;;;;;;;;6313541;22;20026;-82
2023/01/26 05:45:16;;;;;;;70.93;18.73;;;;;;;;;;6313780;22;20019;-81
2023/01/26 05:47:43;;;;;;;70.35;19.85;;;;;;;;;;6285166;22;20799;-82
2023/01/26 05:50:10;;;;;;;69.40;19.25;;;;;;;;;;6312981;22;20103;-82
2023/01/26 05:52:37;;;;;;;65.88;17.85;;;;;;;;;;6314276;22;20107;-82
2023/01/26 05:55:04;;;;;;;65.57;19.55;;;;;;;;;;6317328;22;20024;-82
2023/01/26 05:57:31;;;;;;;72.10;19.55;;;;;;;;;;6315229;22;20024;-84
2023/01/26 05:59:58;;;;;;;75.18;18.50;;;;;;;;;;6315383;22;20071;-82
2023/01/26 06:02:26;;;;;;;70.55;18.48;;;;;;;;;;6314612;22;20020;-82
2023/01/26 06:04:52;;;;;;;74.10;17.48;;;;;;;;;;6312742;22;20046;-82
2023/01/26 06:07:18;;;;;;;79.45;20.02;;;;;;;;;;6311456;22;20107;-82
2023/01/26 06:09:45;;;;;;;72.60;18.88;;;;;;;;;;6314891;22;20107;-82
2023/01/26 06:12:15;;;;;;;69.72;18.15;;;;;;;;;;6314097;22;20099;-82
2023/01/26 06:14:42;;;;;;;77.95;18.92;;;;;;;;;;6286044;22;20667;-82
2023/01/26 06:17:11;;;;;;;70.03;18.25;;;;;;;;;;6289089;22;20024;-82
2023/01/26 06:19:37;;;;;;;73.43;19.60;;;;;;;;;;6314588;22;20016;-81
2023/01/26 06:22:07;;;;;;;65.50;18.83;;;;;;;;;;6316292;22;20020;-82
2023/01/26 06:24:34;;;;;;;67.35;19.60;;;;;;;;;;6281703;22;20551;-81
2023/01/26 06:27:01;;;;;;;67.13;18.33;;;;;;;;;;6313448;22;20024;-82
2023/01/26 06:29:27;;;;;;;75.75;20.00;;;;;;;;;;6285689;22;20076;-82
2023/01/26 06:31:53;;;;;;;64.30;17.63;;;;;;;;;;6304758;22;20016;-82
2023/01/26 06:34:20;;;;;;;72.95;19.10;;;;;;;;;;6310432;22;21056;-82
2023/01/26 06:36:47;;;;;;;63.10;19.40;;;;;;;;;;6287593;22;20018;-81
2023/01/26 06:39:13;;;;;;;60.55;18.63;;;;;;;;;;6316150;22;20030;-83
2023/01/26 06:41:41;;;;;;;65.32;18.52;;;;;;;;;;6313759;22;20024;-82
2023/01/26 06:44:07;;;;;;;72.13;18.58;;;;;;;;;;6315953;22;20024;-82
2023/01/26 06:46:33;;;;;;;65.50;18.38;;;;;;;;;;6314878;22;20814;-82
2023/01/26 06:49:03;;;;;;;69.90;18.35;;;;;;;;;;6286401;22;20024;-82
2023/01/26 06:51:43;;;;;;;64.22;18.23;;;;;;;;;;6314956;22;20078;-82
2023/01/26 06:54:10;;;;;;;66.20;19.00;;;;;;;;;;6314892;22;20027;-82
2023/01/26 06:56:37;;;;;;;66.45;18.90;;;;;;;;;;6311348;22;20015;-82
2023/01/26 06:59:04;;;;;;;67.40;18.40;;;;;;;;;;6314791;22;20090;-82
2023/01/26 07:01:33;;;;;;;64.38;19.15;;;;;;;;;;6314193;22;20034;-82
2023/01/26 07:04:00;;;;;;;67.10;17.83;;;;;;;;;;6315035;22;20024;-82
2023/01/26 07:06:26;;;;;;;63.50;18.55;;;;;;;;;;6315422;22;20039;-82
2023/01/26 07:08:53;;;;;;;72.65;18.88;;;;;;;;;;6312328;22;20016;-82
2023/01/26 07:11:20;;;;;;;73.28;18.25;;;;;;;;;;6288501;22;20022;-82
2023/01/26 07:13:47;;;;;;;62.03;17.50;;;;;;;;;;6287286;22;20026;-82
2023/01/26 07:16:15;;;;;;;69.10;20.08;;;;;;;;;;6315349;22;20115;-81
2023/01/26 07:18:41;;;;;;;74.72;19.58;;;;;;;;;;6315613;22;20087;-81
2023/01/26 07:21:11;;;;;;;69.60;19.20;;;;;;;;;;6314893;22;20034;-81
2023/01/26 07:23:37;;;;;;;63.40;17.33;;;;;;;;;;6314973;22;20019;-81
2023/01/26 07:26:04;;;;;;;67.63;18.75;;;;;;;;;;6312805;22;20349;-82
2023/01/26 07:28:33;;;;;;;75.13;19.45;;;;;;;;;;6315409;22;20024;-82
2023/01/26 07:31:00;;;;;;;61.75;18.00;;;;;;;;;;6313774;22;20034;-81
2023/01/26 07:33:30;;;;;;;74.80;17.73;;;;;;;;;;6284433;22;20666;-82
2023/01/26 07:35:56;;;;;;;70.37;19.10;;;;;;;;;;6309127;22;20882;-81
2023/01/26 07:38:23;;;;;;;62.13;19.17;;;;;;;;;;6284644;22;20254;-81
2023/01/26 07:40:50;;;;;;;70.10;18.83;;;;;;;;;;6311229;22;20500;-81
2023/01/26 07:43:16;;;;;;;86.57;20.17;;;;;;;;;;6310027;22;20891;-81
2023/01/26 07:45:46;;;;;;;82.18;20.73;;;;;;;;;;6283061;22;20020;-81
2023/01/26 07:48:14;;;;;;;71.72;19.65;;;;;;;;;;6308344;22;20024;-81
2023/01/26 07:50:40;;;;;;;88.60;19.60;;;;;;;;;;6283998;22;20019;-81
2023/01/26 07:53:08;;;;;;;87.07;21.35;;;;;;;;;;6311666;22;20004;-81
2023/01/26 07:55:34;;;;;;;78.50;21.30;;;;;;;;;;6311803;22;20452;-81
2023/01/26 07:58:00;;;;;;;101.13;20.42;;;;;;;;;;6311883;22;20023;-81
2023/01/26 08:00:27;;;;;;;98.65;21.63;;;;;;;;;;6283695;22;20086;-81
2023/01/26 08:02:53;;;;;;;101.68;21.02;;;;;;;;;;6310606;22;20496;-82
2023/01/26 08:05:20;;;;;;;83.78;19.83;;;;;;;;;;6310981;22;20826;-81
2023/01/26 08:07:47;;;;;;;91.82;20.52;;;;;;;;;;6312465;22;20032;-81
2023/01/26 08:10:15;;;;;;;89.65;20.27;;;;;;;;;;6316029;22;20016;-81
2023/01/26 08:12:41;;;;;;;86.28;19.17;;;;;;;;;;6287203;22;20020;-81
2023/01/26 08:15:08;;;;;;;139.82;22.17;;;;;;;;;;6311633;22;20019;-81
2023/01/26 08:17:37;;;;;;;90.95;20.75;;;;;;;;;;6314036;22;20623;-81
2023/01/26 08:20:04;;;;;;;93.55;21.55;;;;;;;;;;6285956;22;20008;-82
2023/01/26 08:22:32;;;;;;;86.55;19.15;;;;;;;;;;6317180;22;20020;-81
2023/01/26 08:24:59;;;;;;;96.63;19.70;;;;;;;;;;6288682;22;20114;-82
2023/01/26 08:27:25;;;;;;;87.70;19.95;;;;;;;;;;6313313;22;20050;-81
2023/01/26 08:32:28;;;;;;;85.50;20.48;;;;;;;;;;6347154;22;20108;-81
2023/01/26 08:34:58;;;;;;;81.00;19.95;;;;;;;;;;6346797;22;20056;-81
2023/01/26 08:37:25;;;;;;;96.60;21.53;;;;;;;;;;6320209;22;20030;-81
2023/01/26 08:39:51;;;;;;;80.82;19.80;;;;;;;;;;6349229;22;20205;-81
2023/01/26 08:42:18;;;;;;;81.22;19.05;;;;;;;;;;6319583;22;20029;-82
2023/01/26 08:44:47;;;;;;;84.63;21.55;;;;;;;;;;6320094;22;20030;-81
2023/01/26 08:47:13;;;;;;;87.82;19.42;;;;;;;;;;6346338;22;20134;-81
2023/01/26 08:49:39;;;;;;;81.03;20.92;;;;;;;;;;6346802;22;20539;-81
2023/01/26 08:52:06;;;;;;;85.07;21.17;;;;;;;;;;6348830;22;20443;-81
2023/01/26 08:54:32;;;;;;;77.60;19.10;;;;;;;;;;6347887;22;20094;-81
2023/01/26 08:56:58;;;;;;;78.55;19.00;;;;;;;;;;6347459;22;20027;-81
2023/01/26 08:59:59;;;;;;;90.25;20.27;;;;;;;;;;6347451;22;20056;-81
2023/01/26 09:02:29;;;;;;;83.97;19.42;;;;;;;;;;6307797;22;20069;-81
2023/01/26 09:05:12;;;;;;;78.68;18.75;;;;;;;;;;6318282;22;20106;-81
2023/01/26 09:11:25;;;;;;;81.32;18.63;;;;;;;;;;6315918;22;20791;-80
2023/01/26 09:13:58;;;;;;;74.32;16.45;;;;;;;;;;6299562;22;20069;-80
2023/01/26 09:16:24;;;;;;;76.38;17.15;;;;;;;;;;6291695;22;20567;-80
2023/01/26 09:18:52;;;;;;;77.85;17.08;;;;;;;;;;6315630;22;20077;-80
2023/01/26 09:21:19;;;;;;;68.63;17.35;;;;;;;;;;6289400;22;20028;-80
2023/01/26 09:23:51;;;;;;;80.55;17.20;;;;;;;;;;6316224;22;20020;-83
2023/01/26 09:31:00;;;;;;;57.80;15.93;;;;;;;;;;6313253;22;20027;-80
2023/01/26 09:33:36;;;;;;;65.68;15.77;;;;;;;;;;6310434;22;20026;-80
2023/01/26 09:36:12;;;;;;;73.40;16.77;;;;;;;;;;6312345;22;20012;-80
2023/01/26 09:38:44;;;;;;;59.83;15.98;;;;;;;;;;6314442;22;20537;-81
2023/01/26 09:42:00;;;;;;;57.65;15.13;;;;;;;;;;6313732;22;20459;-81
2023/01/26 09:45:05;;;;;;;;;;;;;;;;;;;;;
2023/01/26 09:50:35;;;;;;;55.42;13.80;;;;;;;;;;6339399;22;19919;-84
2023/01/26 09:53:20;;;;;;;72.13;16.35;;;;;;;;;;6340353;22;20054;-84
2023/01/26 09:56:27;;;;;;;61.85;14.90;;;;;;;;;;6340010;22;20460;-83
2023/01/26 09:59:14;;;;;;;57.47;12.82;;;;;;;;;;6314008;22;20365;-84
2023/01/26 10:01:56;;;;;;;57.50;13.73;;;;;;;;;;6341204;22;20033;-83
2023/01/26 10:05:03;;;;;;;60.70;12.90;;;;;;;;;;6344585;22;20026;-83
2023/01/26 10:10:31;;;;;;;50.47;12.80;;;;;;;;;;6312109;22;20062;-82
2023/01/26 10:13:01;;;;;;;54.63;12.40;;;;;;;;;;6287143;22;20027;-82
2023/01/26 10:15:27;;;;;;;53.67;13.07;;;;;;;;;;6312228;22;20031;-82
2023/01/26 10:17:56;;;;;;;47.63;12.35;;;;;;;;;;6286063;22;20020;-82
2023/01/26 10:20:48;;;;;;;48.40;11.32;;;;;;;;;;6311629;22;20016;-82
2023/01/26 10:23:22;;;;;;;49.83;10.63;;;;;;;;;;6314825;22;20075;-82
2023/01/26 10:25:50;;;;;;;58.33;11.75;;;;;;;;;;6314361;22;20020;-82
2023/01/26 10:28:23;;;;;;;34.25;9.38;;;;;;;;;;6286946;22;20018;-82
2023/01/26 10:30:50;;;;;;;38.40;8.60;;;;;;;;;;6288547;22;20028;-82
2023/01/26 10:33:19;;;;;;;40.03;7.70;;;;;;;;;;6314822;22;20020;-82
2023/01/26 10:35:47;;;;;;;;;;;;;;;;;;6287763;22;20491;-82
2023/01/26 10:38:32;;;;;;;30.20;6.15;;;;;;;;;;6285738;22;46262;-82
2023/01/26 10:41:18;;;;;;;31.38;6.25;;;;;;;;;;6314418;22;20020;-82
2023/01/26 10:43:58;;;;;;;31.05;5.80;;;;;;;;;;6315347;22;20028;-82
2023/01/26 10:46:30;;;;;;;22.88;4.38;;;;;;;;;;6285967;22;20020;-82
2023/01/26 10:48:59;;;;;;;31.15;3.30;;;;;;;;;;6286412;22;20019;-82
2023/01/26 10:51:28;;;;;;;24.58;3.70;;;;;;;;;;6284559;22;20012;-82
2023/01/26 10:54:13;;;;;;;35.05;3.47;;;;;;;;;;6288128;22;20016;-82
2023/01/26 10:56:44;;;;;;;18.73;2.17;;;;;;;;;;6314413;22;20027;-82
2023/01/26 10:59:15;;;;;;;19.52;2.90;;;;;;;;;;6287405;22;20076;-82
2023/01/26 11:01:55;;;;;;;27.73;2.92;;;;;;;;;;6315931;22;20550;-82
2023/01/26 11:04:25;;;;;;;19.98;3.15;;;;;;;;;;6314168;22;20028;-83
2023/01/26 11:06:55;;;;;;;19.20;2.97;;;;;;;;;;6313113;22;20023;-83
2023/01/26 11:09:28;;;;;;;16.95;2.60;;;;;;;;;;6284952;22;20106;-82
2023/01/26 11:11:56;;;;;;;15.93;2.40;;;;;;;;;;6313253;22;20024;-83
2023/01/26 11:14:23;;;;;;;17.65;2.72;;;;;;;;;;6285853;22;20465;-83
2023/01/26 11:17:09;;;;;;;20.70;3.03;;;;;;;;;;6286498;22;20055;-83
2023/01/26 11:19:56;;;;;;;19.55;2.92;;;;;;;;;;6297866;22;20098;-83
2023/01/26 11:22:22;;;;;;;21.42;2.40;;;;;;;;;;6252900;22;20024;-83
2023/01/26 11:24:55;;;;;;;17.35;3.15;;;;;;;;;;6312791;22;20868;-83
2023/01/26 11:27:26;;;;;;;22.33;3.40;;;;;;;;;;6286096;22;20055;-83
2023/01/26 11:30:05;;;;;;;21.40;2.83;;;;;;;;;;6284411;22;20111;-84
2023/01/26 11:32:43;;;;;;;12.10;2.13;;;;;;;;;;6281431;22;20124;-86
2023/01/26 11:35:25;;;;;;;29.23;3.20;;;;;;;;;;6309241;22;20024;-83
2023/01/26 11:38:17;;;;;;;23.25;2.42;;;;;;;;;;6312109;22;20020;-83
2023/01/26 11:40:54;;;;;;;14.50;2.22;;;;;;;;;;6283143;22;20536;-83
2023/01/26 11:43:26;;;;;;;16.60;2.20;;;;;;;;;;6284882;22;20469;-84
2023/01/26 11:46:00;;;;;;;16.10;2.65;;;;;;;;;;6312677;22;20031;-83
2023/01/26 11:48:36;;;;;;;17.10;2.40;;;;;;;;;;6284400;22;20019;-83
2023/01/26 11:51:22;;;;;;;18.42;2.75;;;;;;;;;;6312558;22;20042;-83
2023/01/26 11:53:48;;;;;;;20.88;3.25;;;;;;;;;;6313770;22;20031;-84
2023/01/26 11:56:21;;;;;;;15.75;3.38;;;;;;;;;;6312727;22;20027;-84
2023/01/26 11:58:51;;;;;;;18.33;2.80;;;;;;;;;;6310472;22;20024;-84
2023/01/26 12:01:21;;;;;;;19.30;2.25;;;;;;;;;;6312483;22;20056;-84
2023/01/26 12:03:49;;;;;;;15.65;2.15;;;;;;;;;;6311919;22;20027;-84
2023/01/26 12:06:38;;;;;;;12.35;2.30;;;;;;;;;;6312375;22;20047;-84
2023/01/26 12:09:37;;;;;;;20.02;2.55;;;;;;;;;;6275924;22;20015;-83
2023/01/26 12:12:48;;;;;;;16.48;2.50;;;;;;;;;;6291501;22;20023;-83
2023/01/26 12:16:09;;;;;;;12.13;2.10;;;;;;;;;;6303922;22;20024;-83
2023/01/26 12:19:12;;;;;;;21.27;2.38;;;;;;;;;;6091657;23;20027;-83
2023/01/26 12:21:42;;;;;;;12.00;2.15;;;;;;;;;;6103940;23;20077;-83
2023/01/26 12:24:13;;;;;;;15.27;1.80;;;;;;;;;;6262067;22;20525;-83
2023/01/26 12:27:01;;;;;;;16.33;2.72;;;;;;;;;;6308209;22;20091;-83
2023/01/26 12:29:33;;;;;;;16.95;2.78;;;;;;;;;;6308220;22;20059;-83
2023/01/26 12:32:02;;;;;;;15.35;1.98;;;;;;;;;;6309792;22;20535;-83
2023/01/26 12:34:31;;;;;;;12.98;1.92;;;;;;;;;;6304610;22;20028;-83
2023/01/26 12:37:09;;;;;;;19.15;2.80;;;;;;;;;;6307076;22;20031;-83
2023/01/26 12:39:43;;;;;;;11.05;2.10;;;;;;;;;;6306272;22;20811;-84
2023/01/26 12:42:28;;;;;;;11.68;2.20;;;;;;;;;;6306057;22;20022;-83
2023/01/26 12:45:01;;;;;;;13.95;2.42;;;;;;;;;;6303533;22;20472;-83
2023/01/26 12:47:37;;;;;;;12.88;2.13;;;;;;;;;;6303637;22;20070;-83
2023/01/26 12:50:21;;;;;;;11.77;2.28;;;;;;;;;;6304195;22;20028;-83
2023/01/26 12:52:51;;;;;;;16.25;2.38;;;;;;;;;;6304331;22;20024;-83
2023/01/26 12:55:24;;;;;;;11.13;2.10;;;;;;;;;;6304683;22;20055;-84
2023/01/26 12:57:54;;;;;;;8.80;1.33;;;;;;;;;;6304201;22;20028;-84
2023/01/26 13:00:21;;;;;;;;;;;;;;;;;;6307365;22;20034;-84
2023/01/26 13:02:49;;;;;;;12.90;1.90;;;;;;;;;;6278086;22;45411;-84
2023/01/26 13:05:23;;;;;;;11.02;1.50;;;;;;;;;;6305481;22;20107;-84
2023/01/26 13:07:49;;;;;;;15.23;2.08;;;;;;;;;;6306617;22;20482;-83
2023/01/26 13:10:19;;;;;;;17.95;2.83;;;;;;;;;;6306088;22;20028;-83
2023/01/26 13:12:47;;;;;;;13.32;1.70;;;;;;;;;;6306061;22;20030;-83
2023/01/26 13:15:15;;;;;;;19.33;2.55;;;;;;;;;;6304857;22;20500;-84
2023/01/26 13:17:41;;;;;;;10.43;2.28;;;;;;;;;;6306356;22;20224;-83
2023/01/26 13:20:14;;;;;;;14.88;2.55;;;;;;;;;;6306935;22;20083;-83
2023/01/26 13:22:41;;;;;;;14.55;2.33;;;;;;;;;;6307803;22;20034;-84
2023/01/26 13:25:16;;;;;;;11.88;1.88;;;;;;;;;;6308185;22;20066;-84
2023/01/26 13:27:45;;;;;;;10.20;1.95;;;;;;;;;;6307224;22;20066;-84
2023/01/26 13:30:20;;;;;;;22.98;2.47;;;;;;;;;;6307291;22;20027;-84
2023/01/26 13:32:47;;;;;;;13.32;2.35;;;;;;;;;;6308192;22;20023;-84
2023/01/26 13:35:18;;;;;;;14.85;1.92;;;;;;;;;;6306599;22;20026;-83
2023/01/26 13:37:44;;;;;;;12.98;1.70;;;;;;;;;;6308921;22;20030;-83
2023/01/26 13:40:22;;;;;;;11.98;2.15;;;;;;;;;;6308478;22;20046;-84
2023/01/26 13:42:49;;;;;;;11.07;2.20;;;;;;;;;;6308531;22;20026;-83
2023/01/26 13:45:28;;;;;;;12.18;1.92;;;;;;;;;;6308685;22;20441;-84
2023/01/26 13:47:56;;;;;;;10.32;1.70;;;;;;;;;;6305956;22;20122;-83
2023/01/26 13:50:33;;;;;;;13.70;2.03;;;;;;;;;;6307557;22;20027;-83
2023/01/26 13:53:00;;;;;;;12.68;2.47;;;;;;;;;;6304695;22;20030;-83
2023/01/26 13:55:29;;;;;;;8.93;1.92;;;;;;;;;;6308990;22;20514;-84
2023/01/26 13:58:09;;;;;;;15.75;1.77;;;;;;;;;;6305934;22;20034;-84
2023/01/26 14:00:35;;;;;;;13.48;2.17;;;;;;;;;;6306283;22;20512;-84
2023/01/26 14:03:01;;;;;;;15.02;2.03;;;;;;;;;;6308251;22;20031;-84
2023/01/26 14:05:30;;;;;;;15.35;1.80;;;;;;;;;;6307078;22;20032;-84
2023/01/26 14:07:56;;;;;;;17.85;2.88;;;;;;;;;;6304563;22;20051;-84
2023/01/26 14:10:23;;;;;;;17.50;2.53;;;;;;;;;;6306411;22;20024;-84
2023/01/26 14:12:51;;;;;;;8.90;1.70;;;;;;;;;;6306955;22;20494;-84
2023/01/26 14:15:22;;;;;;;17.67;2.05;;;;;;;;;;6307015;22;20055;-84
2023/01/26 14:17:55;;;;;;;10.88;1.42;;;;;;;;;;6305946;22;20405;-84
2023/01/26 14:20:27;;;;;;;9.48;1.58;;;;;;;;;;6306968;22;20523;-84
2023/01/26 14:23:05;;;;;;;12.52;1.80;;;;;;;;;;6306973;22;20098;-84
2023/01/26 14:25:32;;;;;;;11.93;1.50;;;;;;;;;;6307530;22;20024;-84
2023/01/26 14:27:59;;;;;;;8.35;1.83;;;;;;;;;;6306439;22;20027;-84
2023/01/26 14:30:27;;;;;;;13.70;2.42;;;;;;;;;;6306774;22;20030;-84
2023/01/26 14:32:55;;;;;;;8.70;1.35;;;;;;;;;;6306478;22;20035;-84
2023/01/26 14:35:22;;;;;;;13.40;2.17;;;;;;;;;;6303646;22;20611;-84
2023/01/26 14:37:49;;;;;;;10.15;1.63;;;;;;;;;;6303847;22;20028;-84
2023/01/26 14:40:20;;;;;;;10.35;1.60;;;;;;;;;;6304738;22;20028;-87
2023/01/26 14:42:51;;;;;;;13.20;1.85;;;;;;;;;;6307126;22;20028;-84
2023/01/26 14:45:23;;;;;;;8.98;1.63;;;;;;;;;;6307319;22;20024;-84
2023/01/26 14:47:52;;;;;;;17.30;2.40;;;;;;;;;;6306913;22;20236;-84
2023/01/26 14:50:22;;;;;;;14.75;1.63;;;;;;;;;;6308090;22;20077;-84
2023/01/26 14:52:49;;;;;;;14.48;1.83;;;;;;;;;;6307915;22;20024;-84
2023/01/26 14:55:26;;;;;;;11.35;1.73;;;;;;;;;;6305404;22;20498;-85
2023/01/26 14:57:57;;;;;;;14.25;1.48;;;;;;;;;;6304742;22;20016;-85
2023/01/26 15:00:28;;;;;;;9.80;1.48;;;;;;;;;;6308302;22;20032;-84
2023/01/26 15:02:56;;;;;;;17.60;2.05;;;;;;;;;;6306457;22;20354;-84
2023/01/26 15:05:29;;;;;;;9.00;1.83;;;;;;;;;;6307835;22;20032;-84
2023/01/26 15:08:00;;;;;;;11.40;1.77;;;;;;;;;;6307025;22;20464;-84
2023/01/26 15:10:33;;;;;;;10.23;1.52;;;;;;;;;;6306909;22;20024;-84
2023/01/26 15:13:06;;;;;;;10.52;1.65;;;;;;;;;;6306970;22;20296;-84
2023/01/26 15:15:34;;;;;;;14.00;1.80;;;;;;;;;;6305442;22;20058;-84
2023/01/26 15:18:13;;;;;;;13.90;1.88;;;;;;;;;;6309985;22;20027;-84
2023/01/26 15:20:42;;;;;;;10.27;1.80;;;;;;;;;;6306628;22;20059;-84
2023/01/26 15:23:28;;;;;;;10.18;1.58;;;;;;;;;;6306368;22;20109;-84
2023/01/26 15:25:55;;;;;;;13.65;1.95;;;;;;;;;;6307603;22;20028;-84
2023/01/26 15:28:26;;;;;;;12.00;2.13;;;;;;;;;;6303811;22;20031;-84
2023/01/26 15:30:55;;;;;;;13.18;1.50;;;;;;;;;;6304855;22;20020;-84
2023/01/26 15:33:40;;;;;;;9.38;1.65;;;;;;;;;;6301513;22;20027;-84
2023/01/26 15:36:21;;;;;;;9.50;1.80;;;;;;;;;;6302095;22;20024;-83
2023/01/26 15:38:47;;;;;;;12.73;2.00;;;;;;;;;;6279740;22;20088;-82
2023/01/26 15:41:14;;;;;;;19.77;2.10;;;;;;;;;;6305418;22;20067;-83
2023/01/26 15:43:40;;;;;;;15.57;1.95;;;;;;;;;;6306706;22;20106;-83
2023/01/26 15:46:07;;;;;;;12.52;1.88;;;;;;;;;;6306894;22;20024;-82